Time;durP1;ratioP1;P1;durP2;ratioP2;P2;SDS_P1;SDS_P2;PMS_P1;PMS_P2;Temp;Humidity;BMP_temperature;BMP_pressure;BME280_temperature;BME280_humidity;BME280_pressure;Samples;Min_cycle;Max_cycle;Signal;HPM_P1;HPM_P2
2022/12/19 00:00:45;;;;;;;;;;;3.20;88.90;;;-151.14;100.00;62537.16;5075743;28;19920;-81
2022/12/19 00:03:13;;;;;;;;;;;3.20;88.80;;;-151.14;100.00;62537.16;5093622;28;19920;-81
2022/12/19 00:05:42;;;;;;;;;;;3.20;88.90;;;-151.14;100.00;62537.16;5092839;28;19920;-81
2022/12/19 00:08:14;;;;;;;;;;;3.30;88.90;;;-151.14;100.00;62537.16;5093782;28;19920;-81
2022/12/19 00:10:42;;;;;;;;;;;3.20;88.80;;;-151.14;100.00;62537.16;5075805;28;19920;-81
2022/12/19 00:13:10;;;;;;;;;;;3.20;88.60;;;-151.14;100.00;62537.16;5058856;28;20208;-81
2022/12/19 00:15:38;;;;;;;;;;;3.20;88.80;;;-151.14;100.00;62537.16;5058419;28;19927;-81
2022/12/19 00:18:06;;;;;;;;;;;3.20;88.80;;;-151.14;100.00;62537.16;5075723;28;20126;-81
2022/12/19 00:20:34;;;;;;;;;;;3.20;88.60;;;-151.14;100.00;62537.16;5058960;28;19920;-81
2022/12/19 00:23:03;;;;;;;;;;;3.20;88.70;;;-151.14;100.00;62537.16;5075499;28;20111;-80
2022/12/19 00:25:31;;;;;;;;;;;3.20;88.80;;;-151.14;100.00;62537.16;5074975;28;19926;-80
2022/12/19 00:27:59;;;;;;;;;;;3.20;88.80;;;-151.14;100.00;62537.16;5075564;28;19926;-81
2022/12/19 00:30:27;;;;;;;;;;;3.20;88.80;;;-151.14;100.00;62537.16;5092995;28;19927;-81
2022/12/19 00:32:57;;;;;;;;;;;3.20;88.80;;;-151.14;100.00;62537.16;5058884;28;19927;-80
2022/12/19 00:35:25;;;;;;;;;;;3.20;89.60;;;-151.14;100.00;62537.16;5091312;28;19927;-81
2022/12/19 00:37:53;;;;;;;;;;;3.20;88.80;;;-151.14;100.00;62537.16;5058671;28;19926;-80
2022/12/19 00:40:22;;;;;;;;;;;3.20;88.80;;;-151.14;100.00;62537.16;5058535;28;19920;-80
2022/12/19 00:42:50;;;;;;;;;;;3.20;88.70;;;-151.14;100.00;62537.16;5058662;28;19920;-81
2022/12/19 00:45:18;;;;;;;;;;;3.20;88.60;;;-151.14;100.00;62537.16;5074282;28;20238;-80
2022/12/19 00:47:46;;;;;;;;;;;3.20;88.80;;;-151.14;100.00;62537.16;5092673;28;19927;-80
2022/12/19 00:50:14;;;;;;;;;;;3.20;88.70;;;-151.14;100.00;62537.16;5091817;28;19920;-80
2022/12/19 00:52:42;;;;;;;;;;;3.20;88.80;;;-151.14;100.00;62537.16;5075205;28;19926;-80
2022/12/19 00:55:10;;;;;;;;;;;3.20;88.80;;;-151.14;100.00;62537.16;5074512;28;19920;-80
2022/12/19 00:57:39;;;;;;;;;;;3.20;88.80;;;-151.14;100.00;62537.16;5092001;28;20235;-81
2022/12/19 01:00:09;;;;;;;;;;;3.20;88.70;;;18.10;100.00;62537.16;5075119;28;19927;-80
2022/12/19 01:02:37;;;;;;;;;;;3.20;89.60;;;-151.14;100.00;62537.16;5091768;28;19920;-80
2022/12/19 01:05:06;;;;;;;;;;;3.20;88.80;;;-151.14;100.00;62537.16;5074177;28;19920;-80
2022/12/19 01:07:34;;;;;;;;;;;3.20;88.60;;;-151.14;100.00;62537.16;5074631;28;19920;-80
2022/12/19 01:10:02;;;;;;;;;;;3.20;88.60;;;-151.14;100.00;62537.16;5074664;28;19920;-80
2022/12/19 01:12:48;;;;;;;;;;;3.20;88.70;;;-151.14;100.00;62537.16;5092695;28;19927;-80
2022/12/19 01:15:19;;;;;;;;;;;3.20;88.60;;;-151.14;100.00;62537.16;5090894;28;19927;-81
2022/12/19 01:17:47;;;;;;;;;;;3.10;88.60;;;-151.14;100.00;62537.16;5092770;28;20089;-80
2022/12/19 01:20:16;;;;;;;;;;;3.20;88.60;;;1.80;100.00;62537.16;5074856;28;20124;-80
2022/12/19 01:22:44;;;;;;;;;;;3.20;88.70;;;-151.14;100.00;62537.16;5074578;28;20125;-80
2022/12/19 01:25:14;;;;;;;;;;;3.10;88.70;;;-151.14;100.00;62537.16;5074073;28;19927;-80
2022/12/19 01:27:41;;;;;;;;;;;3.10;88.50;;;-151.14;100.00;62537.16;5057886;28;19927;-81
2022/12/19 01:30:11;;;;;;;;;;;3.10;88.60;;;18.09;100.00;62537.16;5074418;28;19936;-80
2022/12/19 01:32:40;;;;;;;;;;;3.10;88.70;;;-151.14;100.00;62537.16;5074531;28;19920;-80
2022/12/19 01:35:09;;;;;;;;;;;3.20;88.50;;;-151.14;100.00;62537.16;5091575;28;19927;-80
2022/12/19 01:37:37;;;;;;;;;;;3.10;88.60;;;-151.14;100.00;62537.16;5074544;28;19920;-80
2022/12/19 01:40:06;;;;;;;;;;;3.10;88.40;;;-151.14;100.00;62537.16;5074440;28;19920;-81
2022/12/19 01:42:35;;;;;;;;;;;3.10;88.70;;;-151.14;100.00;62537.16;5074108;28;19920;-80
2022/12/19 01:45:27;;;;;;;;;;;3.10;88.60;;;-151.14;100.00;62537.16;5073631;28;19926;-81
2022/12/19 01:47:59;;;;;;;;;;;3.10;89.40;;;-151.14;100.00;62537.16;5074248;28;19927;-80
2022/12/19 01:50:29;;;;;;;;;;;3.10;88.70;;;-151.14;100.00;62537.16;5057297;28;19920;-80
2022/12/19 01:52:57;;;;;;;;;;;3.10;88.70;;;-151.14;100.00;62537.16;5074152;28;19943;-80
2022/12/19 01:55:25;;;;;;;;;;;3.10;88.80;;;-151.14;100.00;62537.16;5056723;28;19927;-80
2022/12/19 01:57:53;;;;;;;;;;;3.10;88.80;;;1.75;100.00;62537.16;5073876;28;19920;-81
2022/12/19 02:00:21;;;;;;;;;;;3.10;88.70;;;-151.14;100.00;62537.16;5074235;28;19974;-80
2022/12/19 02:02:53;;;;;;;;;;;3.10;88.70;;;-151.14;100.00;62537.16;5057600;28;19923;-80
2022/12/19 02:05:22;;;;;;;;;;;3.10;88.70;;;-151.14;100.00;62537.16;5056608;28;19934;-80
2022/12/19 02:07:50;;;;;;;;;;;3.10;88.70;;;-151.14;100.00;62537.16;5074119;28;19920;-80
2022/12/19 02:10:18;;;;;;;;;;;3.10;88.70;;;-151.14;100.00;62537.16;5056673;28;19920;-80
2022/12/19 02:12:46;;;;;;;;;;;3.10;88.60;;;-151.14;100.00;62537.16;5057231;28;19920;-80
2022/12/19 02:15:14;;;;;;;;;;;3.10;88.70;;;-151.14;100.00;62537.16;5056477;28;19920;-80
2022/12/19 02:17:51;;;;;;;;;;;3.10;88.60;;;-151.14;100.00;62537.16;5074027;28;19920;-80
2022/12/19 02:20:45;;;;;;;;;;;3.10;88.70;;;-151.14;100.00;62537.16;5090700;28;19920;-80
2022/12/19 02:23:34;;;;;;;;;;;3.10;88.60;;;-151.14;100.00;62537.16;5073583;28;19977;-80
2022/12/19 02:26:12;;;;;;;;;;;3.10;88.60;;;-151.14;100.00;62537.16;5073219;28;19926;-80
2022/12/19 02:29:01;;;;;;;;;;;3.10;88.70;;;-151.14;100.00;62537.16;5073722;28;19927;-80
2022/12/19 02:31:33;;;;;;;;;;;3.10;88.60;;;-151.14;100.00;62537.16;5056913;28;20208;-80
2022/12/19 02:34:04;;;;;;;;;;;3.00;88.40;;;1.71;100.00;62537.16;5056426;28;20115;-80
2022/12/19 02:36:38;;;;;;;;;;;3.00;88.60;;;1.69;100.00;62537.16;5073145;28;19927;-80
2022/12/19 02:39:08;;;;;;;;;;;3.10;88.60;;;-151.14;100.00;62537.16;5073657;28;19926;-80
2022/12/19 02:41:43;;;;;;;;;;;3.00;88.60;;;-151.14;100.00;62537.16;5090222;28;19920;-80
2022/12/19 02:44:18;;;;;;;;;;;3.00;88.50;;;-151.14;100.00;62537.16;5073130;28;19926;-80
2022/12/19 02:46:48;;;;;;;;;;;3.00;88.40;;;-151.14;100.00;62537.16;5073122;28;19924;-80
2022/12/19 02:49:16;;;;;;;;;;;3.00;88.40;;;-151.14;100.00;62537.16;5090111;28;19936;-80
2022/12/19 02:51:44;;;;;;;;;;;3.00;89.40;;;-151.14;100.00;62537.16;5073450;28;19927;-80
2022/12/19 02:54:12;;;;;;;;;;;3.00;88.50;;;-151.14;100.00;62537.16;5073228;28;20230;-80
2022/12/19 02:56:43;;;;;;;;;;;3.00;88.60;;;-151.14;100.00;62537.16;5106902;28;19920;-80
2022/12/19 02:59:18;;;;;;;;;;;3.00;88.60;;;-151.14;100.00;62537.16;5056709;28;19927;-80
2022/12/19 03:01:49;;;;;;;;;;;3.00;88.50;;;-151.14;100.00;62537.16;5106960;28;19920;-80
2022/12/19 03:04:24;;;;;;;;;;;3.00;88.40;;;-151.14;100.00;62537.16;5056170;28;19921;-80
2022/12/19 03:06:53;;;;;;;;;;;3.00;88.40;;;-151.14;100.00;62537.16;5089701;28;19926;-80
2022/12/19 03:09:26;;;;;;;;;;;3.00;88.50;;;1.66;100.00;62537.16;5089952;28;19920;-80
2022/12/19 03:12:03;;;;;;;;;;;3.00;88.50;;;-151.14;100.00;62537.16;5055712;28;19920;-80
2022/12/19 03:14:31;;;;;;;;;;;3.00;88.50;;;-151.14;100.00;62537.16;5088719;28;19920;-80
2022/12/19 03:17:04;;;;;;;;;;;3.00;88.40;;;-151.14;100.00;62537.16;5072757;28;19927;-80
2022/12/19 03:19:33;;;;;;;;;;;3.00;88.40;;;-151.14;100.00;62537.16;5089537;28;19926;-80
2022/12/19 03:22:00;;;;;;;;;;;3.00;88.50;;;-151.14;100.00;62537.16;5074050;28;20123;-80
2022/12/19 03:24:28;;;;;;;;;;;3.00;88.60;;;-151.14;100.00;62537.16;5093928;28;20234;-79
2022/12/19 03:26:57;;;;;;;;;;;3.00;88.50;;;-151.14;100.00;62537.16;5093774;28;19920;-80
2022/12/19 03:29:30;;;;;;;;;;;3.00;88.50;;;-151.14;100.00;62537.16;5076461;28;20115;-80
2022/12/19 03:31:58;;;;;;;;;;;3.00;88.50;;;18.09;100.00;62537.16;5109974;28;20093;-79
2022/12/19 03:34:29;;;;;;;;;;;3.00;88.40;;;-151.14;100.00;62537.16;5076205;28;19924;-80
2022/12/19 03:36:58;;;;;;;;;;;3.00;88.50;;;-151.14;100.00;62537.16;5109888;28;19921;-79
2022/12/19 03:39:26;;;;;;;;;;;3.00;88.30;;;-151.14;100.00;62537.16;5094147;28;20226;-80
2022/12/19 03:44:40;;;;;;;;;;;3.00;88.40;;;-151.14;100.00;62537.16;5093928;28;19924;-80
2022/12/19 03:47:10;;;;;;;;;;;3.00;88.40;;;-151.14;100.00;62537.16;5059446;28;19927;-80
2022/12/19 03:49:39;;;;;;;;;;;3.00;88.30;;;-151.14;100.00;62537.16;5076281;28;19934;-80
2022/12/19 03:52:12;;;;;;;;;;;3.00;88.40;;;-151.14;100.00;62537.16;5093888;28;19921;-80
2022/12/19 03:54:41;;;;;;;;;;;3.00;88.30;;;18.10;100.00;62537.16;5093508;28;19920;-80
2022/12/19 03:57:10;;;;;;;;;;;2.90;88.40;;;-151.14;100.00;62537.16;5075887;28;20217;-80
2022/12/19 03:59:40;;;;;;;;;;;3.00;88.30;;;-151.14;100.00;62537.16;5076049;28;19920;-80
2022/12/19 04:02:08;;;;;;;;;;;2.90;88.40;;;-151.14;100.00;62537.16;5109846;28;20200;-80
2022/12/19 04:04:43;;;;;;;;;;;2.90;88.30;;;1.58;100.00;62537.16;5075477;28;19927;-80
2022/12/19 04:07:11;;;;;;;;;;;2.90;88.40;;;-151.14;100.00;62537.16;5109388;28;19974;-80
2022/12/19 04:09:39;;;;;;;;;;;2.90;88.40;;;-151.14;100.00;62537.16;5075772;28;19921;-80
2022/12/19 04:12:08;;;;;;;;;;;2.90;88.40;;;-151.14;100.00;62537.16;5075815;28;19920;-80
2022/12/19 04:14:37;;;;;;;;;;;2.90;88.40;;;1.58;100.00;62537.16;5058636;28;19927;-80
2022/12/19 04:17:10;;;;;;;;;;;2.90;88.50;;;-151.14;100.00;62537.16;5093351;28;20119;-79
2022/12/19 04:19:42;;;;;;;;;;;2.90;88.40;;;-151.14;100.00;62537.16;5075844;28;19920;-80
2022/12/19 04:22:14;;;;;;;;;;;2.90;88.40;;;-151.14;100.00;62537.16;5058812;28;19920;-80
2022/12/19 04:24:42;;;;;;;;;;;2.90;88.40;;;-151.14;100.00;62537.16;5074845;28;19920;-80
2022/12/19 04:27:10;;;;;;;;;;;2.90;88.40;;;-151.14;100.00;62537.16;5075483;28;19927;-80
2022/12/19 04:29:38;;;;;;;;;;;2.90;88.40;;;-151.14;100.00;62537.16;5075427;28;19920;-80
2022/12/19 04:32:06;;;;;;;;;;;2.90;88.40;;;-151.14;100.00;62537.16;5075011;28;19934;-80
2022/12/19 04:34:34;;;;;;;;;;;2.90;88.30;;;-151.14;100.00;62537.16;5058588;28;19920;-80
2022/12/19 04:37:04;;;;;;;;;;;2.90;88.40;;;-151.14;100.00;62537.16;5058371;28;19920;-80
2022/12/19 04:39:32;;;;;;;;;;;2.90;88.40;;;-151.14;100.00;62537.16;5091977;28;19970;-79
2022/12/19 04:42:00;;;;;;;;;;;2.90;89.20;;;-151.14;100.00;62537.16;5092029;28;19942;-80
2022/12/19 04:44:28;;;;;;;;;;;2.90;88.40;;;-151.14;100.00;62537.16;5092934;28;19927;-80
2022/12/19 04:46:56;;;;;;;;;;;2.90;88.50;;;-151.14;100.00;62537.16;5074860;28;19920;-80
2022/12/19 04:49:24;;;;;;;;;;;2.90;88.50;;;-151.14;100.00;62537.16;5108692;28;20131;-80
2022/12/19 04:51:51;;;;;;;;;;;2.90;88.50;;;-151.14;100.00;62537.16;5058512;28;19920;-79
2022/12/19 04:54:21;;;;;;;;;;;2.90;88.40;;;-151.14;100.00;62537.16;5074941;28;19920;-80
2022/12/19 04:56:49;;;;;;;;;;;2.80;88.30;;;-151.14;100.00;62537.16;5091589;28;19920;-80
2022/12/19 04:59:17;;;;;;;;;;;2.80;88.40;;;-151.14;100.00;62537.16;5075181;28;19934;-80
2022/12/19 05:01:44;;;;;;;;;;;2.80;88.30;;;-151.14;100.00;62537.16;5058373;28;19932;-80
2022/12/19 05:04:15;;;;;;;;;;;2.80;88.40;;;-151.14;100.00;62537.16;5108566;28;19920;-79
2022/12/19 05:06:43;;;;;;;;;;;2.80;88.30;;;-151.14;100.00;62537.16;5092498;28;20017;-80
2022/12/19 05:09:11;;;;;;;;;;;2.80;88.20;;;-151.14;100.00;62537.16;5074819;28;20208;-80
2022/12/19 05:11:40;;;;;;;;;;;2.80;88.30;;;-151.14;100.00;62537.16;5092796;28;20204;-80
2022/12/19 05:14:08;;;;;;;;;;;2.80;88.20;;;18.10;100.00;62537.16;5091227;28;19920;-80
2022/12/19 05:16:36;;;;;;;;;;;2.80;88.30;;;-151.14;100.00;62537.16;5108020;28;19920;-79
2022/12/19 05:19:04;;;;;;;;;;;2.80;88.20;;;-151.14;100.00;62537.16;5074699;28;20109;-80
2022/12/19 05:21:32;;;;;;;;;;;2.80;88.20;;;-151.14;100.00;62537.16;5057969;28;19920;-80
2022/12/19 05:24:00;;;;;;;;;;;2.80;88.30;;;-151.14;100.00;62537.16;5074592;28;19920;-80
2022/12/19 05:26:28;;;;;;;;;;;2.80;88.20;;;-151.14;100.00;62537.16;5074149;28;19928;-79
2022/12/19 05:28:57;;;;;;;;;;;2.80;88.30;;;-151.14;100.00;62537.16;5054577;28;19920;-79
2022/12/19 05:31:25;;;;;;;;;;;2.80;88.20;;;-151.14;100.00;62537.16;5069424;28;19920;-79
2022/12/19 05:33:53;;;;;;;;;;;2.80;88.20;;;-151.14;100.00;62537.16;5074425;28;19920;-80
2022/12/19 05:36:21;;;;;;;;;;;2.80;88.20;;;-151.14;100.00;62537.16;5057476;28;19928;-79
2022/12/19 05:38:49;;;;;;;;;;;2.80;88.20;;;-151.14;100.00;62537.16;5092169;28;19926;-79
2022/12/19 05:41:18;;;;;;;;;;;2.80;88.10;;;-151.14;100.00;62537.16;5057658;28;19920;-80
2022/12/19 05:43:48;;;;;;;;;;;2.80;88.20;;;-151.14;100.00;62537.16;5091564;28;19927;-79
2022/12/19 05:46:18;;;;;;;;;;;2.80;88.10;;;-151.14;100.00;62537.16;5056861;28;19920;-79
2022/12/19 05:48:46;;;;;;;;;;;2.80;88.10;;;-151.14;100.00;62537.16;5092215;28;19927;-80
2022/12/19 05:51:13;;;;;;;;;;;2.80;88.20;;;-151.14;100.00;62537.16;5073941;28;19942;-79
2022/12/19 05:53:41;;;;;;;;;;;2.80;88.10;;;-151.14;100.00;62537.16;5057273;28;20231;-80
2022/12/19 05:56:10;;;;;;;;;;;2.80;88.20;;;-151.14;100.00;62537.16;5091644;28;19920;-80
2022/12/19 05:58:39;;;;;;;;;;;2.80;88.10;;;-151.14;100.00;62537.16;5074114;28;19924;-79
2022/12/19 06:01:07;;;;;;;;;;;2.80;88.10;;;-151.14;100.00;62537.16;5092166;28;19920;-79
2022/12/19 06:03:37;;;;;;;;;;;2.80;88.10;;;-151.14;100.00;62537.16;5057181;28;19920;-79
2022/12/19 06:06:05;;;;;;;;;;;2.80;88.20;;;-151.14;100.00;62537.16;5073493;28;19920;-79
2022/12/19 06:08:33;;;;;;;;;;;2.80;88.10;;;-151.14;100.00;62537.16;5073975;28;19924;-79
2022/12/19 06:11:48;;;;;;;;;;;;;;;;;;;;;
2022/12/19 06:14:56;;;;;;;;;;;2.70;88.10;;;-151.14;100.00;62537.16;5073575;28;19926;-79
2022/12/19 06:17:24;;;;;;;;;;;2.80;88.10;;;18.10;100.00;62537.16;5091618;28;20238;-79
2022/12/19 06:19:53;;;;;;;;;;;2.80;88.00;;;-151.14;100.00;62537.16;5073864;28;19921;-79
2022/12/19 06:22:22;;;;;;;;;;;2.80;88.00;;;-151.14;100.00;62537.16;5091766;28;19920;-79
2022/12/19 06:25:52;;;;;;;;;;;2.80;87.90;;;-151.14;100.00;62537.16;5056470;28;19920;-79
2022/12/19 06:29:15;;;;;;;;;;;2.80;87.80;;;-151.14;100.00;62537.16;5053504;28;19926;-79
2022/12/19 06:34:55;;;;;;;;;;;2.90;87.60;;;-151.14;100.00;62537.16;5051364;28;19920;-79
2022/12/19 06:37:23;;;;;;;;;;;2.90;87.40;;;-151.14;100.00;62537.16;5073404;28;19920;-79
2022/12/19 06:39:51;;;;;;;;;;;2.90;87.20;;;-151.14;100.00;62537.16;5091366;28;19920;-79
2022/12/19 06:42:23;;;;;;;;;;;3.00;87.10;;;-151.14;100.00;62537.16;5073485;28;19927;-79
2022/12/19 06:44:51;;;;;;;;;;;3.00;87.10;;;-151.14;100.00;62537.16;5056281;28;19924;-79
2022/12/19 06:47:20;;;;;;;;;;;3.00;87.20;;;1.62;100.00;62537.16;5073431;28;19942;-80
2022/12/19 06:53:56;;;;;;;;;;;3.00;87.00;;;-151.14;100.00;62537.16;5053080;28;19918;-80
2022/12/19 06:57:00;;;;;;;;;;;3.00;87.00;;;-151.14;100.00;62537.16;5055009;28;19920;-80
2022/12/19 06:59:28;;;;;;;;;;;3.00;87.10;;;-151.14;100.00;62537.16;5057004;28;19920;-80
2022/12/19 07:02:01;;;;;;;;;;;3.00;86.90;;;1.70;100.00;62537.16;5067933;28;19920;-80
2022/12/19 07:04:30;;;;;;;;;;;3.10;87.00;;;1.72;100.00;62537.16;5093156;28;19928;-80
2022/12/19 07:06:58;;;;;;;;;;;3.10;87.00;;;-151.14;100.00;62537.16;5059696;28;19920;-80
2022/12/19 07:09:49;;;;;;;;;;;3.10;86.80;;;-151.14;100.00;62537.16;5077061;28;20348;-80
2022/12/19 07:12:34;;;;;;;;;;;3.10;86.80;;;-151.14;100.00;62537.16;5110280;28;19970;-80
2022/12/19 07:15:09;;;;;;;;;;;3.10;87.10;;;-151.14;100.00;62537.16;5093813;28;20129;-80
2022/12/19 07:17:37;;;;;;;;;;;3.10;86.70;;;-151.14;100.00;62537.16;5093527;28;19920;-80
2022/12/19 07:20:05;;;;;;;;;;;3.10;86.70;;;-151.14;100.00;62537.16;5076628;28;19927;-80
2022/12/19 07:22:34;;;;;;;;;;;3.20;86.60;;;-151.14;100.00;62537.16;5093885;28;19924;-80
2022/12/19 07:25:07;;;;;;;;;;;3.20;86.60;;;-151.14;100.00;62537.16;5076149;28;19920;-80
2022/12/19 07:27:35;;;;;;;;;;;3.20;86.50;;;-151.14;100.00;62537.16;5076482;28;19927;-80
2022/12/19 07:30:03;;;;;;;;;;;3.20;86.40;;;-151.14;100.00;62537.16;5059775;28;19921;-80
2022/12/19 07:32:31;;;;;;;;;;;3.20;86.40;;;-151.14;100.00;62537.16;5076447;28;19934;-80
2022/12/19 07:35:06;;;;;;;;;;;3.20;86.50;;;1.92;100.00;62537.16;5075960;28;19934;-80
2022/12/19 07:37:34;;;;;;;;;;;3.30;86.50;;;-151.14;100.00;62537.16;5059749;28;20216;-80
2022/12/19 07:40:02;;;;;;;;;;;3.30;86.50;;;-151.14;100.00;62537.16;5094121;28;19927;-80
2022/12/19 07:42:32;;;;;;;;;;;3.30;86.40;;;-151.14;100.00;62537.16;5059613;28;19921;-80
2022/12/19 07:45:01;;;;;;;;;;;3.30;86.40;;;-151.14;100.00;62537.16;5058713;28;19927;-81
2022/12/19 07:47:29;;;;;;;;;;;3.30;86.20;;;-151.14;100.00;62537.16;5076201;28;19920;-80
2022/12/19 07:49:57;;;;;;;;;;;3.40;86.10;;;-151.14;100.00;62537.16;5093855;28;19926;-80
2022/12/19 07:52:25;;;;;;;;;;;3.40;86.00;;;-151.14;100.00;62537.16;5059393;28;19920;-80
2022/12/19 07:54:53;;;;;;;;;;;3.40;85.90;;;-151.14;100.00;62537.16;5058701;28;19927;-80
2022/12/19 07:57:21;;;;;;;;;;;3.50;85.90;;;-151.14;100.00;62537.16;5093642;28;19934;-81
2022/12/19 07:59:52;;;;;;;;;;;3.50;85.70;;;-151.14;100.00;62537.16;5109786;28;19938;-81
2022/12/19 08:02:20;;;;;;;;;;;3.50;85.60;;;-151.14;100.00;62537.16;5109733;28;19929;-81
2022/12/19 08:04:47;;;;;;;;;;;3.60;85.40;;;18.09;100.00;62537.16;5093164;28;19927;-80
2022/12/19 08:07:15;;;;;;;;;;;3.60;85.40;;;-151.14;100.00;62537.16;5075069;28;19920;-81
2022/12/19 08:09:43;;;;;;;;;;;3.60;85.20;;;-151.14;100.00;62537.16;5075800;28;19927;-80
2022/12/19 08:12:11;;;;;;;;;;;3.60;85.10;;;2.39;100.00;62537.16;5075910;28;19942;-80
2022/12/19 08:14:39;;;;;;;;;;;3.70;85.10;;;-151.14;100.00;62537.16;5093510;28;20211;-80
2022/12/19 08:17:09;;;;;;;;;;;3.70;85.00;;;-151.14;100.00;62537.16;5075698;28;19935;-80
2022/12/19 08:19:37;;;;;;;;;;;3.70;84.80;;;-151.14;100.00;62537.16;5092424;28;19920;-81
2022/12/19 08:22:05;;;;;;;;;;;3.70;84.70;;;-151.14;100.00;62537.16;5075787;28;20234;-81
2022/12/19 08:24:33;;;;;;;;;;;3.70;84.70;;;-151.14;100.00;62537.16;5092137;28;19942;-81
2022/12/19 08:27:01;;;;;;;;;;;3.80;84.70;;;-151.14;100.00;62537.16;5075304;28;20200;-80
2022/12/19 08:29:31;;;;;;;;;;;3.80;84.50;;;-151.14;100.00;62537.16;5092385;28;20238;-81
2022/12/19 08:35:47;;;;;;;;;;;3.90;84.70;;;-151.14;100.00;62537.16;5031045;28;19942;-81
2022/12/19 08:42:17;;;;;;;;;;;3.90;84.50;;;-151.14;100.00;62537.16;5054949;28;19926;-81
2022/12/19 08:44:45;;;;;;;;;;;3.90;84.40;;;-151.14;100.00;62537.16;5054381;28;19935;-80
2022/12/19 08:47:13;;;;;;;;;;;3.90;84.40;;;-151.14;100.00;62537.16;5039019;28;19942;-80
2022/12/19 08:49:43;;;;;;;;;;;3.90;84.30;;;-151.14;100.00;62537.16;5054919;28;19921;-80
2022/12/19 08:52:12;;;;;;;;;;;4.00;84.30;;;-151.14;100.00;62537.16;5071805;28;20025;-80
2022/12/19 08:54:44;;;;;;;;;;;4.00;84.20;;;-151.14;100.00;62537.16;5037724;28;20234;-80
2022/12/19 08:57:13;;;;;;;;;;;4.00;84.20;;;-151.14;100.00;62537.16;5055073;28;20234;-80
2022/12/19 08:59:44;;;;;;;;;;;4.00;84.10;;;-151.14;100.00;62537.16;5071469;28;19927;-80
2022/12/19 09:02:12;;;;;;;;;;;4.00;84.90;;;-151.14;100.00;62537.16;5054601;28;19921;-80
2022/12/19 09:04:40;;;;;;;;;;;4.00;84.00;;;-151.14;100.00;62537.16;5071252;28;20111;-80
2022/12/19 09:07:09;;;;;;;;;;;4.00;83.90;;;-151.14;100.00;62537.16;5071355;28;19982;-80
2022/12/19 09:13:03;;;;;;;;;;;4.00;83.90;;;2.69;100.00;62537.16;5042335;28;19920;-80
2022/12/19 09:15:32;;;;;;;;;;;4.00;83.90;;;-151.14;100.00;62537.16;5054240;28;19921;-80
2022/12/19 09:17:59;;;;;;;;;;;4.00;83.90;;;-151.14;100.00;62537.16;5054687;28;20119;-80
2022/12/19 09:20:51;;;;;;;;;;;4.00;83.90;;;-151.14;100.00;62537.16;5053469;28;20234;-80
2022/12/19 09:23:35;;;;;;;;;;;4.00;83.90;;;-151.14;100.00;62537.16;5054406;28;19927;-80
2022/12/19 09:26:14;;;;;;;;;;;4.00;83.90;;;-151.14;100.00;62537.16;5037880;28;19920;-80
2022/12/19 09:29:27;;;;;;;;;;;4.00;83.90;;;-151.14;100.00;62537.16;5078209;28;19921;-80
2022/12/19 09:31:56;;;;;;;;;;;4.00;83.90;;;-151.14;100.00;62537.16;5054065;28;20208;-80
2022/12/19 09:34:38;;;;;;;;;;;4.00;83.90;;;18.10;100.00;62537.16;5037574;28;19927;-80
2022/12/19 09:37:10;;;;;;;;;;;4.00;84.10;;;-151.14;100.00;62537.16;5038254;28;19942;-80
2022/12/19 09:39:45;;;;;;;;;;;4.00;84.00;;;-151.14;100.00;62537.16;5062332;28;20208;-80
2022/12/19 09:42:31;;;;;;;;;;;4.00;84.00;;;-151.14;100.00;62537.16;5057613;28;19920;-80
2022/12/19 09:45:29;;;;;;;;;;;4.00;84.10;;;-151.14;100.00;62537.16;5073743;28;19920;-80
2022/12/19 09:48:02;;;;;;;;;;;4.00;84.00;;;;;;5057517;28;19920;-80
2022/12/19 09:50:43;;;;;;;;;;;4.00;84.00;;;-151.14;100.00;62537.16;5074404;28;19928;-80
2022/12/19 09:53:29;;;;;;;;;;;4.00;84.00;;;-151.14;100.00;62537.16;5073919;28;19920;-80
2022/12/19 09:56:02;;;;;;;;;;;4.00;84.00;;;-151.14;100.00;62537.16;5057347;28;19924;-80
2022/12/19 09:58:32;;;;;;;;;;;3.90;84.00;;;-151.14;100.00;62537.16;5057240;28;19927;-80
2022/12/19 10:01:08;;;;;;;;;;;3.90;84.10;;;-151.14;100.00;62537.16;5057550;28;19926;-80
2022/12/19 10:03:41;;;;;;;;;;;3.90;84.10;;;-151.14;100.00;62537.16;5057062;28;19920;-80
2022/12/19 10:06:15;;;;;;;;;;;4.00;84.10;;;-151.14;100.00;62537.16;5056469;28;19926;-81
2022/12/19 10:08:43;;;;;;;;;;;3.90;84.10;;;-151.14;100.00;62537.16;5074060;28;19920;-80
2022/12/19 10:11:21;;;;;;;;;;;3.90;84.10;;;-151.14;100.00;62537.16;5091803;28;20234;-80
2022/12/19 10:13:57;;;;;;;;;;;3.90;84.10;;;2.53;100.00;62537.16;5073569;28;19920;-80
2022/12/19 10:16:29;;;;;;;;;;;3.90;84.20;;;-151.14;100.00;62537.16;5073447;28;19920;-80
2022/12/19 10:18:58;;;;;;;;;;;3.90;84.10;;;-151.14;100.00;62537.16;5057180;28;19926;-80
2022/12/19 10:21:32;;;;;;;;;;;3.90;84.20;;;-151.14;100.00;62537.16;5057254;28;19927;-80
2022/12/19 10:24:21;;;;;;;;;;;3.90;84.10;;;-151.14;100.00;62537.16;5091507;28;19920;-80
2022/12/19 10:26:52;;;;;;;;;;;3.90;84.20;;;-151.14;100.00;62537.16;5056691;28;20230;-80
2022/12/19 10:29:52;;;;;;;;;;;3.80;84.00;;;-151.14;100.00;62537.16;5056948;28;20113;-80
2022/12/19 10:32:24;;;;;;;;;;;3.80;84.10;;;-151.14;100.00;62537.16;5046845;28;19920;-80
2022/12/19 10:34:55;;;;;;;;;;;3.80;84.00;;;-151.14;100.00;62537.16;5073212;28;19921;-81
2022/12/19 10:37:24;;;;;;;;;;;3.90;84.20;;;-151.14;100.00;62537.16;5073481;28;19920;-81
2022/12/19 10:40:00;;;;;;;;;;;3.80;84.10;;;-151.14;100.00;62537.16;5091302;28;20212;-80
2022/12/19 10:42:37;;;;;;;;;;;3.80;84.10;;;-151.14;100.00;62537.16;5089534;28;20283;-80
2022/12/19 10:45:10;;;;;;;;;;;3.80;84.20;;;-151.14;100.00;62537.16;5089744;28;19934;-80
2022/12/19 10:47:38;;;;;;;;;;;3.80;84.20;;;-151.14;100.00;62537.16;5091526;28;20228;-80
2022/12/19 10:50:06;;;;;;;;;;;3.80;84.20;;;-151.14;100.00;62537.16;5073585;28;19920;-80
2022/12/19 10:52:50;;;;;;;;;;;3.80;84.20;;;-151.14;100.00;62537.16;5107209;28;19924;-81
2022/12/19 10:55:25;;;;;;;;;;;3.70;84.20;;;-151.14;100.00;62537.16;5072818;28;19942;-81
2022/12/19 10:57:57;;;;;;;;;;;3.80;84.20;;;-151.14;100.00;62537.16;5107022;28;19926;-79
2022/12/19 11:00:26;;;;;;;;;;;3.70;84.30;;;-151.14;100.00;62537.16;5091344;28;20112;-80
2022/12/19 11:03:20;;;;;;;;;;;3.70;84.30;;;-151.14;100.00;62537.16;5089779;28;19928;-80
2022/12/19 11:05:56;;;;;;;;;;;3.70;84.40;;;-151.14;100.00;62537.16;5073244;28;19927;-80
2022/12/19 11:08:24;;;;;;;;;;;3.70;84.40;;;2.29;100.00;62537.16;5090115;28;19920;-80
2022/12/19 11:10:53;;;;;;;;;;;3.70;84.40;;;-151.14;100.00;62537.16;5073100;28;20110;-80
2022/12/19 11:13:24;;;;;;;;;;;3.70;84.40;;;-151.14;100.00;62537.16;5073191;28;19926;-81
2022/12/19 11:15:53;;;;;;;;;;;3.70;84.40;;;-151.14;100.00;62537.16;5090768;28;19921;-80
2022/12/19 11:18:21;;;;;;;;;;;3.70;84.40;;;-151.14;100.00;62537.16;5073299;28;20131;-80
2022/12/19 11:21:00;;;;;;;;;;;3.70;84.40;;;-151.14;100.00;62537.16;5073008;28;19934;-81
2022/12/19 11:23:28;;;;;;;;;;;3.60;84.30;;;-151.14;100.00;62537.16;5056050;28;20227;-80
2022/12/19 11:25:58;;;;;;;;;;;3.60;84.40;;;-151.14;100.00;62537.16;5072404;28;20216;-81
2022/12/19 11:28:49;;;;;;;;;;;3.60;84.40;;;-151.14;100.00;62537.16;5090915;28;19926;-81
2022/12/19 11:31:21;;;;;;;;;;;3.60;84.50;;;-151.14;100.00;62537.16;5073116;28;20208;-81
2022/12/19 11:33:59;;;;;;;;;;;3.60;84.60;;;-151.14;100.00;62537.16;5072503;28;19926;-81
2022/12/19 11:36:30;;;;;;;;;;;3.60;84.60;;;-151.14;100.00;62537.16;5055946;28;19926;-80
2022/12/19 11:38:58;;;;;;;;;;;3.60;84.60;;;-151.14;100.00;62537.16;5056141;28;19920;-81
2022/12/19 11:41:29;;;;;;;;;;;3.50;84.60;;;-151.14;100.00;62537.16;5056270;28;19920;-81
2022/12/19 11:44:01;;;;;;;;;;;3.60;84.60;;;-151.14;100.00;62537.16;5092875;28;20326;-81
2022/12/19 11:46:37;;;;;;;;;;;3.50;84.60;;;-151.14;100.00;62537.16;5059245;28;19926;-81